sensor_id;sensor_type;location;lat;lon;timestamp;temperature;humidity
40808;DHT22;26523;52.504;13.498;2023-12-14T00:01:20;3.30;99.90
40808;DHT22;26523;52.504;13.498;2023-12-14T00:03:45;3.30;99.90
40808;DHT22;26523;52.504;13.498;2023-12-14T00:06:11;3.40;99.90
40808;DHT22;26523;52.504;13.498;2023-12-14T00:08:37;3.40;99.90
40808;DHT22;26523;52.504;13.498;2023-12-14T00:11:07;3.30;99.90
40808;DHT22;26523;52.504;13.498;2023-12-14T00:13:33;3.30;99.90
40808;DHT22;26523;52.504;13.498;2023-12-14T00:15:59;3.30;99.90
40808;DHT22;26523;52.504;13.498;2023-12-14T00:18:25;3.30;99.90
40808;DHT22;26523;52.504;13.498;2023-12-14T00:20:51;3.20;99.90
40808;DHT22;26523;52.504;13.498;2023-12-14T00:23:18;3.20;99.90
40808;DHT22;26523;52.504;13.498;2023-12-14T00:25:43;3.20;99.90
40808;DHT22;26523;52.504;13.498;2023-12-14T00:28:09;3.20;99.90
40808;DHT22;26523;52.504;13.498;2023-12-14T00:30:34;3.20;99.90
40808;DHT22;26523;52.504;13.498;2023-12-14T00:33:00;3.30;99.90
40808;DHT22;26523;52.504;13.498;2023-12-14T00:35:26;3.20;99.90
40808;DHT22;26523;52.504;13.498;2023-12-14T00:37:51;3.30;99.90
40808;DHT22;26523;52.504;13.498;2023-12-14T00:40:17;3.20;99.90
40808;DHT22;26523;52.504;13.498;2023-12-14T00:42:42;3.10;99.90
40808;DHT22;26523;52.504;13.498;2023-12-14T00:45:08;3.10;99.90
40808;DHT22;26523;52.504;13.498;2023-12-14T00:47:34;3.10;99.90
40808;DHT22;26523;52.504;13.498;2023-12-14T00:50:00;3.10;99.90
40808;DHT22;26523;52.504;13.498;2023-12-14T00:52:26;3.00;99.90
40808;DHT22;26523;52.504;13.498;2023-12-14T00:54:51;2.90;99.90
40808;DHT22;26523;52.504;13.498;2023-12-14T00:57:17;2.90;99.90
40808;DHT22;26523;52.504;13.498;2023-12-14T00:59:43;2.90;99.90
40808;DHT22;26523;52.504;13.498;2023-12-14T01:02:08;2.90;99.90
40808;DHT22;26523;52.504;13.498;2023-12-14T01:04:34;3.00;99.90
40808;DHT22;26523;52.504;13.498;2023-12-14T01:06:59;3.00;99.90
40808;DHT22;26523;52.504;13.498;2023-12-14T01:09:25;3.00;99.90
40808;DHT22;26523;52.504;13.498;2023-12-14T01:11:51;3.00;99.90
40808;DHT22;26523;52.504;13.498;2023-12-14T01:14:16;3.00;99.90
40808;DHT22;26523;52.504;13.498;2023-12-14T01:16:42;2.90;99.90
40808;DHT22;26523;52.504;13.498;2023-12-14T01:19:08;2.80;99.90
40808;DHT22;26523;52.504;13.498;2023-12-14T01:21:33;2.80;99.90
40808;DHT22;26523;52.504;13.498;2023-12-14T01:23:59;2.90;99.90
40808;DHT22;26523;52.504;13.498;2023-12-14T01:26:28;2.90;99.90
40808;DHT22;26523;52.504;13.498;2023-12-14T01:28:54;2.90;99.90
40808;DHT22;26523;52.504;13.498;2023-12-14T01:31:19;2.80;99.90
40808;DHT22;26523;52.504;13.498;2023-12-14T01:33:48;2.80;99.90
40808;DHT22;26523;52.504;13.498;2023-12-14T01:36:25;2.90;99.90
40808;DHT22;26523;52.504;13.498;2023-12-14T01:38:54;2.90;99.90
40808;DHT22;26523;52.504;13.498;2023-12-14T01:41:20;2.80;99.90
40808;DHT22;26523;52.504;13.498;2023-12-14T01:43:45;2.80;99.90
40808;DHT22;26523;52.504;13.498;2023-12-14T01:46:11;2.80;99.90
40808;DHT22;26523;52.504;13.498;2023-12-14T01:48:38;2.90;99.90
40808;DHT22;26523;52.504;13.498;2023-12-14T01:51:03;2.80;99.90
40808;DHT22;26523;52.504;13.498;2023-12-14T01:53:29;2.90;99.90
40808;DHT22;26523;52.504;13.498;2023-12-14T01:55:55;2.90;99.90
40808;DHT22;26523;52.504;13.498;2023-12-14T01:58:21;2.80;99.90
40808;DHT22;26523;52.504;13.498;2023-12-14T02:03:48;2.80;99.90
40808;DHT22;26523;52.504;13.498;2023-12-14T02:06:15;2.70;99.90
40808;DHT22;26523;52.504;13.498;2023-12-14T02:08:41;2.70;99.90
40808;DHT22;26523;52.504;13.498;2023-12-14T02:11:06;2.80;99.90
40808;DHT22;26523;52.504;13.498;2023-12-14T02:13:32;2.90;99.90
40808;DHT22;26523;52.504;13.498;2023-12-14T02:15:58;2.80;99.90
40808;DHT22;26523;52.504;13.498;2023-12-14T02:18:24;2.80;99.90
40808;DHT22;26523;52.504;13.498;2023-12-14T02:20:49;2.80;99.90
40808;DHT22;26523;52.504;13.498;2023-12-14T02:23:15;2.70;99.90
40808;DHT22;26523;52.504;13.498;2023-12-14T02:25:41;2.80;99.90
40808;DHT22;26523;52.504;13.498;2023-12-14T02:28:06;2.70;99.90
40808;DHT22;26523;52.504;13.498;2023-12-14T02:30:32;2.70;99.90
40808;DHT22;26523;52.504;13.498;2023-12-14T02:32:58;2.70;99.90
40808;DHT22;26523;52.504;13.498;2023-12-14T02:35:23;2.70;99.90
40808;DHT22;26523;52.504;13.498;2023-12-14T02:37:49;2.60;99.90
40808;DHT22;26523;52.504;13.498;2023-12-14T02:40:14;2.70;99.90
40808;DHT22;26523;52.504;13.498;2023-12-14T02:42:40;2.70;99.90
40808;DHT22;26523;52.504;13.498;2023-12-14T02:45:07;2.60;99.90
40808;DHT22;26523;52.504;13.498;2023-12-14T02:47:33;2.60;99.90
40808;DHT22;26523;52.504;13.498;2023-12-14T02:49:58;2.70;99.90
40808;DHT22;26523;52.504;13.498;2023-12-14T02:52:24;2.60;99.90
40808;DHT22;26523;52.504;13.498;2023-12-14T02:54:50;2.50;99.90
40808;DHT22;26523;52.504;13.498;2023-12-14T02:57:16;2.50;99.90
40808;DHT22;26523;52.504;13.498;2023-12-14T02:59:41;2.40;99.90
40808;DHT22;26523;52.504;13.498;2023-12-14T03:02:07;2.50;99.90
40808;DHT22;26523;52.504;13.498;2023-12-14T03:04:32;2.70;99.90
40808;DHT22;26523;52.504;13.498;2023-12-14T03:06:58;2.70;99.90
40808;DHT22;26523;52.504;13.498;2023-12-14T03:09:31;2.60;99.90
40808;DHT22;26523;52.504;13.498;2023-12-14T03:11:56;2.50;99.90
40808;DHT22;26523;52.504;13.498;2023-12-14T03:14:22;2.60;99.90
40808;DHT22;26523;52.504;13.498;2023-12-14T03:16:48;2.40;99.90
40808;DHT22;26523;52.504;13.498;2023-12-14T03:19:15;2.50;99.90
40808;DHT22;26523;52.504;13.498;2023-12-14T03:21:41;2.50;99.90
40808;DHT22;26523;52.504;13.498;2023-12-14T03:24:07;2.50;99.90
40808;DHT22;26523;52.504;13.498;2023-12-14T03:26:34;2.40;99.90
40808;DHT22;26523;52.504;13.498;2023-12-14T03:29:00;2.50;99.90
40808;DHT22;26523;52.504;13.498;2023-12-14T03:31:25;2.50;99.90
40808;DHT22;26523;52.504;13.498;2023-12-14T03:33:51;2.50;99.90
40808;DHT22;26523;52.504;13.498;2023-12-14T03:36:17;2.50;99.90
40808;DHT22;26523;52.504;13.498;2023-12-14T03:38:42;2.50;99.90
40808;DHT22;26523;52.504;13.498;2023-12-14T03:41:08;2.50;99.90
40808;DHT22;26523;52.504;13.498;2023-12-14T03:43:34;2.50;99.90
40808;DHT22;26523;52.504;13.498;2023-12-14T03:45:59;2.50;99.90
40808;DHT22;26523;52.504;13.498;2023-12-14T03:48:25;2.40;99.90
40808;DHT22;26523;52.504;13.498;2023-12-14T03:50:50;2.50;99.90
40808;DHT22;26523;52.504;13.498;2023-12-14T03:53:16;2.50;99.90
40808;DHT22;26523;52.504;13.498;2023-12-14T03:55:41;2.40;99.90
40808;DHT22;26523;52.504;13.498;2023-12-14T03:58:07;2.50;99.90
40808;DHT22;26523;52.504;13.498;2023-12-14T04:00:33;2.50;99.90
40808;DHT22;26523;52.504;13.498;2023-12-14T04:02:58;2.60;99.90
40808;DHT22;26523;52.504;13.498;2023-12-14T04:05:24;2.60;99.90
40808;DHT22;26523;52.504;13.498;2023-12-14T04:07:49;2.50;99.90
40808;DHT22;26523;52.504;13.498;2023-12-14T04:10:15;2.50;99.90
40808;DHT22;26523;52.504;13.498;2023-12-14T04:12:41;2.50;99.90
40808;DHT22;26523;52.504;13.498;2023-12-14T04:15:08;2.60;99.90
40808;DHT22;26523;52.504;13.498;2023-12-14T04:17:35;2.60;99.90
40808;DHT22;26523;52.504;13.498;2023-12-14T04:20:01;2.60;99.90
40808;DHT22;26523;52.504;13.498;2023-12-14T04:22:28;2.60;99.90
40808;DHT22;26523;52.504;13.498;2023-12-14T04:24:54;2.50;99.90
40808;DHT22;26523;52.504;13.498;2023-12-14T04:27:20;2.60;99.90
40808;DHT22;26523;52.504;13.498;2023-12-14T04:29:45;2.50;99.90
40808;DHT22;26523;52.504;13.498;2023-12-14T04:32:11;2.50;99.90
40808;DHT22;26523;52.504;13.498;2023-12-14T04:34:37;2.60;99.90
40808;DHT22;26523;52.504;13.498;2023-12-14T04:37:02;2.60;99.90
40808;DHT22;26523;52.504;13.498;2023-12-14T04:39:28;2.60;99.90
40808;DHT22;26523;52.504;13.498;2023-12-14T04:41:54;2.60;99.90
40808;DHT22;26523;52.504;13.498;2023-12-14T04:44:20;2.60;99.90
40808;DHT22;26523;52.504;13.498;2023-12-14T04:46:47;2.80;99.90
40808;DHT22;26523;52.504;13.498;2023-12-14T04:49:13;2.90;99.90
40808;DHT22;26523;52.504;13.498;2023-12-14T04:51:39;2.70;99.90
40808;DHT22;26523;52.504;13.498;2023-12-14T04:54:04;2.70;99.90
40808;DHT22;26523;52.504;13.498;2023-12-14T04:56:30;2.60;99.90
40808;DHT22;26523;52.504;13.498;2023-12-14T04:58:56;2.60;99.90
40808;DHT22;26523;52.504;13.498;2023-12-14T05:01:21;2.60;99.90
40808;DHT22;26523;52.504;13.498;2023-12-14T05:03:47;2.50;99.90
40808;DHT22;26523;52.504;13.498;2023-12-14T05:06:13;2.50;99.90
40808;DHT22;26523;52.504;13.498;2023-12-14T05:08:38;2.50;99.90
40808;DHT22;26523;52.504;13.498;2023-12-14T05:11:04;2.50;99.90
40808;DHT22;26523;52.504;13.498;2023-12-14T05:13:30;2.50;99.90
40808;DHT22;26523;52.504;13.498;2023-12-14T05:15:56;2.50;99.90
40808;DHT22;26523;52.504;13.498;2023-12-14T05:18:26;2.50;99.90
40808;DHT22;26523;52.504;13.498;2023-12-14T05:20:55;2.50;99.90
40808;DHT22;26523;52.504;13.498;2023-12-14T05:23:29;2.60;99.90
40808;DHT22;26523;52.504;13.498;2023-12-14T05:25:55;2.50;99.90
40808;DHT22;26523;52.504;13.498;2023-12-14T05:28:21;2.60;99.90
40808;DHT22;26523;52.504;13.498;2023-12-14T05:30:47;2.60;99.90
40808;DHT22;26523;52.504;13.498;2023-12-14T05:33:12;2.60;99.90
40808;DHT22;26523;52.504;13.498;2023-12-14T05:35:38;2.70;99.90
40808;DHT22;26523;52.504;13.498;2023-12-14T05:38:04;2.60;99.90
40808;DHT22;26523;52.504;13.498;2023-12-14T05:40:30;2.60;99.90
40808;DHT22;26523;52.504;13.498;2023-12-14T05:42:57;2.60;99.90
40808;DHT22;26523;52.504;13.498;2023-12-14T05:45:22;2.60;99.90
40808;DHT22;26523;52.504;13.498;2023-12-14T05:47:48;2.60;99.90
40808;DHT22;26523;52.504;13.498;2023-12-14T05:50:14;2.60;99.90
40808;DHT22;26523;52.504;13.498;2023-12-14T05:52:39;2.60;99.90
40808;DHT22;26523;52.504;13.498;2023-12-14T05:55:09;2.70;99.90
40808;DHT22;26523;52.504;13.498;2023-12-14T05:57:37;2.60;99.90
40808;DHT22;26523;52.504;13.498;2023-12-14T06:00:04;2.60;99.90
40808;DHT22;26523;52.504;13.498;2023-12-14T06:02:31;2.60;99.90
40808;DHT22;26523;52.504;13.498;2023-12-14T06:04:57;2.60;99.90
40808;DHT22;26523;52.504;13.498;2023-12-14T06:07:25;2.70;99.90
40808;DHT22;26523;52.504;13.498;2023-12-14T06:09:50;2.60;99.90
40808;DHT22;26523;52.504;13.498;2023-12-14T06:12:16;2.60;99.90
40808;DHT22;26523;52.504;13.498;2023-12-14T06:14:42;2.60;99.90
40808;DHT22;26523;52.504;13.498;2023-12-14T06:17:07;2.60;99.90
40808;DHT22;26523;52.504;13.498;2023-12-14T06:19:33;2.60;99.90
40808;DHT22;26523;52.504;13.498;2023-12-14T06:21:59;2.50;99.90
40808;DHT22;26523;52.504;13.498;2023-12-14T06:24:25;2.40;99.90
40808;DHT22;26523;52.504;13.498;2023-12-14T06:26:50;2.40;99.90
40808;DHT22;26523;52.504;13.498;2023-12-14T06:29:16;2.40;99.90
40808;DHT22;26523;52.504;13.498;2023-12-14T06:31:42;2.50;99.90
40808;DHT22;26523;52.504;13.498;2023-12-14T06:34:07;2.50;99.90
40808;DHT22;26523;52.504;13.498;2023-12-14T06:36:34;2.50;99.90
40808;DHT22;26523;52.504;13.498;2023-12-14T06:39:01;2.50;99.90
40808;DHT22;26523;52.504;13.498;2023-12-14T06:41:27;2.60;99.90
40808;DHT22;26523;52.504;13.498;2023-12-14T06:43:54;2.60;99.90
40808;DHT22;26523;52.504;13.498;2023-12-14T06:46:20;2.70;99.90
40808;DHT22;26523;52.504;13.498;2023-12-14T06:48:46;2.60;99.90
40808;DHT22;26523;52.504;13.498;2023-12-14T06:51:12;2.60;99.90
40808;DHT22;26523;52.504;13.498;2023-12-14T06:53:41;2.60;99.90
40808;DHT22;26523;52.504;13.498;2023-12-14T06:56:09;2.60;99.90
40808;DHT22;26523;52.504;13.498;2023-12-14T06:58:37;2.70;99.90
40808;DHT22;26523;52.504;13.498;2023-12-14T07:01:02;2.70;99.90
40808;DHT22;26523;52.504;13.498;2023-12-14T07:03:28;2.70;99.90
40808;DHT22;26523;52.504;13.498;2023-12-14T07:05:55;2.70;99.90
40808;DHT22;26523;52.504;13.498;2023-12-14T07:08:20;2.70;99.90
40808;DHT22;26523;52.504;13.498;2023-12-14T07:10:47;2.70;99.90
40808;DHT22;26523;52.504;13.498;2023-12-14T07:13:13;2.70;99.90
40808;DHT22;26523;52.504;13.498;2023-12-14T07:15:38;2.60;99.90
40808;DHT22;26523;52.504;13.498;2023-12-14T07:18:04;2.50;99.90
40808;DHT22;26523;52.504;13.498;2023-12-14T07:20:30;2.60;99.90
40808;DHT22;26523;52.504;13.498;2023-12-14T07:22:57;2.60;99.90
40808;DHT22;26523;52.504;13.498;2023-12-14T07:25:26;2.60;99.90
40808;DHT22;26523;52.504;13.498;2023-12-14T07:27:52;2.70;99.90
40808;DHT22;26523;52.504;13.498;2023-12-14T07:30:18;2.60;99.90
40808;DHT22;26523;52.504;13.498;2023-12-14T07:32:44;2.70;99.90
40808;DHT22;26523;52.504;13.498;2023-12-14T07:35:09;2.80;99.90
40808;DHT22;26523;52.504;13.498;2023-12-14T07:37:35;2.90;99.90
40808;DHT22;26523;52.504;13.498;2023-12-14T07:40:01;2.80;99.90
40808;DHT22;26523;52.504;13.498;2023-12-14T07:42:28;2.80;99.90
40808;DHT22;26523;52.504;13.498;2023-12-14T07:44:53;2.80;99.90
40808;DHT22;26523;52.504;13.498;2023-12-14T07:47:19;2.80;99.90
40808;DHT22;26523;52.504;13.498;2023-12-14T07:49:45;2.80;99.90
40808;DHT22;26523;52.504;13.498;2023-12-14T07:52:11;2.80;99.90
40808;DHT22;26523;52.504;13.498;2023-12-14T07:54:39;2.80;99.90
40808;DHT22;26523;52.504;13.498;2023-12-14T07:57:05;2.90;99.90
40808;DHT22;26523;52.504;13.498;2023-12-14T07:59:31;2.80;99.90
40808;DHT22;26523;52.504;13.498;2023-12-14T08:01:58;2.70;99.90
40808;DHT22;26523;52.504;13.498;2023-12-14T08:04:25;2.80;99.90
40808;DHT22;26523;52.504;13.498;2023-12-14T08:06:55;2.80;99.90
40808;DHT22;26523;52.504;13.498;2023-12-14T08:09:28;2.80;99.90
40808;DHT22;26523;52.504;13.498;2023-12-14T08:11:54;2.80;99.90
40808;DHT22;26523;52.504;13.498;2023-12-14T08:14:23;2.80;99.90
40808;DHT22;26523;52.504;13.498;2023-12-14T08:16:49;2.80;99.90
40808;DHT22;26523;52.504;13.498;2023-12-14T08:19:17;2.90;99.90
40808;DHT22;26523;52.504;13.498;2023-12-14T08:22:07;2.90;99.90
40808;DHT22;26523;52.504;13.498;2023-12-14T08:24:38;2.90;99.90
40808;DHT22;26523;52.504;13.498;2023-12-14T08:27:06;2.90;99.90
40808;DHT22;26523;52.504;13.498;2023-12-14T08:29:31;2.90;99.90
40808;DHT22;26523;52.504;13.498;2023-12-14T08:31:57;2.90;99.90
40808;DHT22;26523;52.504;13.498;2023-12-14T08:34:27;2.80;99.90
40808;DHT22;26523;52.504;13.498;2023-12-14T08:36:55;2.70;99.90
40808;DHT22;26523;52.504;13.498;2023-12-14T08:39:22;2.70;99.90
40808;DHT22;26523;52.504;13.498;2023-12-14T08:41:48;2.70;99.90
40808;DHT22;26523;52.504;13.498;2023-12-14T08:44:15;2.70;99.90
40808;DHT22;26523;52.504;13.498;2023-12-14T08:46:45;2.70;99.90
40808;DHT22;26523;52.504;13.498;2023-12-14T08:49:12;2.80;99.90
40808;DHT22;26523;52.504;13.498;2023-12-14T08:51:38;2.80;99.90
40808;DHT22;26523;52.504;13.498;2023-12-14T08:54:04;2.90;99.90
40808;DHT22;26523;52.504;13.498;2023-12-14T08:56:33;2.80;99.90
40808;DHT22;26523;52.504;13.498;2023-12-14T08:58:59;2.80;99.90
40808;DHT22;26523;52.504;13.498;2023-12-14T09:01:29;2.70;99.90
40808;DHT22;26523;52.504;13.498;2023-12-14T09:03:55;2.70;99.90
40808;DHT22;26523;52.504;13.498;2023-12-14T09:06:20;2.70;99.90
40808;DHT22;26523;52.504;13.498;2023-12-14T09:08:46;2.70;99.90
40808;DHT22;26523;52.504;13.498;2023-12-14T09:11:13;2.80;99.90
40808;DHT22;26523;52.504;13.498;2023-12-14T09:13:40;2.80;99.90
40808;DHT22;26523;52.504;13.498;2023-12-14T09:16:07;2.80;99.90
40808;DHT22;26523;52.504;13.498;2023-12-14T09:18:34;2.80;99.90
40808;DHT22;26523;52.504;13.498;2023-12-14T09:21:02;2.80;99.90
40808;DHT22;26523;52.504;13.498;2023-12-14T09:23:36;2.80;99.90
40808;DHT22;26523;52.504;13.498;2023-12-14T09:26:03;2.70;99.90
40808;DHT22;26523;52.504;13.498;2023-12-14T09:28:29;2.70;99.90
40808;DHT22;26523;52.504;13.498;2023-12-14T09:30:56;2.90;99.90
40808;DHT22;26523;52.504;13.498;2023-12-14T09:33:21;2.80;99.90
40808;DHT22;26523;52.504;13.498;2023-12-14T09:35:48;2.60;99.90
40808;DHT22;26523;52.504;13.498;2023-12-14T09:38:15;2.70;99.90
40808;DHT22;26523;52.504;13.498;2023-12-14T09:40:43;2.70;99.90
40808;DHT22;26523;52.504;13.498;2023-12-14T09:43:11;2.80;99.90
40808;DHT22;26523;52.504;13.498;2023-12-14T09:45:41;2.80;99.90
40808;DHT22;26523;52.504;13.498;2023-12-14T09:48:12;2.80;99.90
40808;DHT22;26523;52.504;13.498;2023-12-14T09:50:41;2.80;99.90
40808;DHT22;26523;52.504;13.498;2023-12-14T09:53:07;2.90;99.90
40808;DHT22;26523;52.504;13.498;2023-12-14T09:55:35;2.90;99.90
40808;DHT22;26523;52.504;13.498;2023-12-14T09:58:02;2.90;99.90
40808;DHT22;26523;52.504;13.498;2023-12-14T10:00:38;2.80;99.90
40808;DHT22;26523;52.504;13.498;2023-12-14T10:03:25;2.90;99.90
40808;DHT22;26523;52.504;13.498;2023-12-14T10:05:55;2.90;99.90
40808;DHT22;26523;52.504;13.498;2023-12-14T10:08:23;2.80;99.90
40808;DHT22;26523;52.504;13.498;2023-12-14T10:10:52;2.80;99.90
40808;DHT22;26523;52.504;13.498;2023-12-14T10:13:19;2.80;99.90
40808;DHT22;26523;52.504;13.498;2023-12-14T10:15:48;2.70;99.90
40808;DHT22;26523;52.504;13.498;2023-12-14T10:18:24;2.80;99.90
40808;DHT22;26523;52.504;13.498;2023-12-14T10:20:51;2.70;99.90
40808;DHT22;26523;52.504;13.498;2023-12-14T10:23:24;2.70;99.90
40808;DHT22;26523;52.504;13.498;2023-12-14T10:25:52;2.70;99.90
40808;DHT22;26523;52.504;13.498;2023-12-14T10:28:22;2.80;99.90
40808;DHT22;26523;52.504;13.498;2023-12-14T10:30:47;2.70;99.90
40808;DHT22;26523;52.504;13.498;2023-12-14T10:33:15;2.70;99.90
40808;DHT22;26523;52.504;13.498;2023-12-14T10:35:43;2.70;99.90
40808;DHT22;26523;52.504;13.498;2023-12-14T10:38:13;2.80;99.90
40808;DHT22;26523;52.504;13.498;2023-12-14T10:40:44;2.70;99.90
40808;DHT22;26523;52.504;13.498;2023-12-14T10:43:12;2.80;99.90
40808;DHT22;26523;52.504;13.498;2023-12-14T10:45:45;2.80;99.90
40808;DHT22;26523;52.504;13.498;2023-12-14T10:48:18;2.90;99.90
40808;DHT22;26523;52.504;13.498;2023-12-14T10:50:46;2.90;99.90
40808;DHT22;26523;52.504;13.498;2023-12-14T10:53:16;2.90;99.90
40808;DHT22;26523;52.504;13.498;2023-12-14T10:55:47;2.90;99.90
40808;DHT22;26523;52.504;13.498;2023-12-14T10:58:20;2.90;99.90
40808;DHT22;26523;52.504;13.498;2023-12-14T11:00:59;3.00;99.90
40808;DHT22;26523;52.504;13.498;2023-12-14T11:03:32;3.00;99.90
40808;DHT22;26523;52.504;13.498;2023-12-14T11:06:00;2.90;99.90
40808;DHT22;26523;52.504;13.498;2023-12-14T11:08:28;2.90;99.90
40808;DHT22;26523;52.504;13.498;2023-12-14T11:11:03;2.80;99.90
40808;DHT22;26523;52.504;13.498;2023-12-14T11:13:37;2.80;99.90
40808;DHT22;26523;52.504;13.498;2023-12-14T11:16:06;2.70;99.90
40808;DHT22;26523;52.504;13.498;2023-12-14T11:18:33;2.80;99.90
40808;DHT22;26523;52.504;13.498;2023-12-14T11:21:00;2.80;99.90
40808;DHT22;26523;52.504;13.498;2023-12-14T11:23:36;2.80;99.90
40808;DHT22;26523;52.504;13.498;2023-12-14T11:26:06;2.90;99.90
40808;DHT22;26523;52.504;13.498;2023-12-14T11:28:40;2.80;99.90
40808;DHT22;26523;52.504;13.498;2023-12-14T11:31:12;2.80;99.90
40808;DHT22;26523;52.504;13.498;2023-12-14T11:33:38;2.90;99.90
40808;DHT22;26523;52.504;13.498;2023-12-14T11:36:06;3.00;99.90
40808;DHT22;26523;52.504;13.498;2023-12-14T11:38:37;3.00;99.90
40808;DHT22;26523;52.504;13.498;2023-12-14T11:41:03;3.00;99.90
40808;DHT22;26523;52.504;13.498;2023-12-14T11:43:50;2.90;99.90
40808;DHT22;26523;52.504;13.498;2023-12-14T11:46:19;3.00;99.90
40808;DHT22;26523;52.504;13.498;2023-12-14T11:48:45;2.90;99.90
40808;DHT22;26523;52.504;13.498;2023-12-14T11:51:15;3.00;99.90
40808;DHT22;26523;52.504;13.498;2023-12-14T11:53:45;3.10;99.90
40808;DHT22;26523;52.504;13.498;2023-12-14T11:56:19;3.00;99.90
40808;DHT22;26523;52.504;13.498;2023-12-14T11:58:50;3.00;99.90
40808;DHT22;26523;52.504;13.498;2023-12-14T12:01:19;3.00;99.90
40808;DHT22;26523;52.504;13.498;2023-12-14T12:03:56;3.00;99.90
40808;DHT22;26523;52.504;13.498;2023-12-14T12:06:38;3.10;99.90
40808;DHT22;26523;52.504;13.498;2023-12-14T12:09:06;3.10;99.90
40808;DHT22;26523;52.504;13.498;2023-12-14T12:11:38;3.10;99.90
40808;DHT22;26523;52.504;13.498;2023-12-14T12:14:06;3.20;99.90
40808;DHT22;26523;52.504;13.498;2023-12-14T12:16:32;3.20;99.90
40808;DHT22;26523;52.504;13.498;2023-12-14T12:19:04;3.20;99.90
40808;DHT22;26523;52.504;13.498;2023-12-14T12:21:35;3.20;99.90
40808;DHT22;26523;52.504;13.498;2023-12-14T12:24:02;3.30;99.90
40808;DHT22;26523;52.504;13.498;2023-12-14T12:26:42;3.20;99.90
40808;DHT22;26523;52.504;13.498;2023-12-14T12:29:17;3.30;99.90
40808;DHT22;26523;52.504;13.498;2023-12-14T12:31:47;3.30;99.90
40808;DHT22;26523;52.504;13.498;2023-12-14T12:34:17;3.30;99.90
40808;DHT22;26523;52.504;13.498;2023-12-14T12:36:45;3.30;99.90
40808;DHT22;26523;52.504;13.498;2023-12-14T12:39:14;3.30;99.90
40808;DHT22;26523;52.504;13.498;2023-12-14T12:41:40;3.20;99.90
40808;DHT22;26523;52.504;13.498;2023-12-14T12:44:07;3.20;99.90
40808;DHT22;26523;52.504;13.498;2023-12-14T12:46:53;3.20;99.90
40808;DHT22;26523;52.504;13.498;2023-12-14T12:49:22;3.30;99.90
40808;DHT22;26523;52.504;13.498;2023-12-14T12:51:48;3.20;99.90
40808;DHT22;26523;52.504;13.498;2023-12-14T12:54:16;3.30;99.90
40808;DHT22;26523;52.504;13.498;2023-12-14T12:56:42;3.30;99.90
40808;DHT22;26523;52.504;13.498;2023-12-14T12:59:09;3.30;99.90
40808;DHT22;26523;52.504;13.498;2023-12-14T13:01:35;3.40;99.90
40808;DHT22;26523;52.504;13.498;2023-12-14T13:04:01;3.40;99.90
40808;DHT22;26523;52.504;13.498;2023-12-14T13:06:29;3.40;99.90
40808;DHT22;26523;52.504;13.498;2023-12-14T13:08:58;3.40;99.90
40808;DHT22;26523;52.504;13.498;2023-12-14T13:11:24;3.40;99.90
40808;DHT22;26523;52.504;13.498;2023-12-14T13:13:50;3.30;99.90
40808;DHT22;26523;52.504;13.498;2023-12-14T13:16:16;3.40;99.90
40808;DHT22;26523;52.504;13.498;2023-12-14T13:18:46;3.40;99.90
40808;DHT22;26523;52.504;13.498;2023-12-14T13:21:13;3.30;99.90
40808;DHT22;26523;52.504;13.498;2023-12-14T13:23:39;3.40;99.90
40808;DHT22;26523;52.504;13.498;2023-12-14T13:26:05;3.40;99.90
40808;DHT22;26523;52.504;13.498;2023-12-14T13:28:31;3.50;99.90
40808;DHT22;26523;52.504;13.498;2023-12-14T13:30:57;3.40;99.90
40808;DHT22;26523;52.504;13.498;2023-12-14T13:33:23;3.40;99.90
40808;DHT22;26523;52.504;13.498;2023-12-14T13:35:49;3.40;99.90
40808;DHT22;26523;52.504;13.498;2023-12-14T13:38:17;3.40;99.90
40808;DHT22;26523;52.504;13.498;2023-12-14T13:40:50;3.40;99.90
40808;DHT22;26523;52.504;13.498;2023-12-14T13:43:18;3.30;99.90
40808;DHT22;26523;52.504;13.498;2023-12-14T13:45:52;3.30;99.90
40808;DHT22;26523;52.504;13.498;2023-12-14T13:48:26;3.40;99.90
40808;DHT22;26523;52.504;13.498;2023-12-14T13:50:55;3.40;99.90
40808;DHT22;26523;52.504;13.498;2023-12-14T13:53:23;3.30;99.90
40808;DHT22;26523;52.504;13.498;2023-12-14T13:55:49;3.50;99.90
40808;DHT22;26523;52.504;13.498;2023-12-14T13:58:16;3.50;99.90
40808;DHT22;26523;52.504;13.498;2023-12-14T14:00:43;3.50;99.90
40808;DHT22;26523;52.504;13.498;2023-12-14T14:03:10;3.50;99.90
40808;DHT22;26523;52.504;13.498;2023-12-14T14:05:37;3.50;99.90
40808;DHT22;26523;52.504;13.498;2023-12-14T14:08:03;3.50;99.90
40808;DHT22;26523;52.504;13.498;2023-12-14T14:10:33;3.50;99.90
40808;DHT22;26523;52.504;13.498;2023-12-14T14:12:59;3.50;99.90
40808;DHT22;26523;52.504;13.498;2023-12-14T14:15:25;3.40;99.90
40808;DHT22;26523;52.504;13.498;2023-12-14T14:17:52;3.50;99.90
40808;DHT22;26523;52.504;13.498;2023-12-14T14:20:20;3.50;99.90
40808;DHT22;26523;52.504;13.498;2023-12-14T14:22:48;3.50;99.90
40808;DHT22;26523;52.504;13.498;2023-12-14T14:25:15;3.50;99.90
40808;DHT22;26523;52.504;13.498;2023-12-14T14:27:42;3.40;99.90
40808;DHT22;26523;52.504;13.498;2023-12-14T14:30:14;3.30;99.90
40808;DHT22;26523;52.504;13.498;2023-12-14T14:32:40;3.20;99.90
40808;DHT22;26523;52.504;13.498;2023-12-14T14:35:06;3.20;99.90
40808;DHT22;26523;52.504;13.498;2023-12-14T14:37:33;3.20;99.90
40808;DHT22;26523;52.504;13.498;2023-12-14T14:40:01;3.10;99.90
40808;DHT22;26523;52.504;13.498;2023-12-14T14:42:32;3.20;99.90
40808;DHT22;26523;52.504;13.498;2023-12-14T14:45:00;3.20;99.90
40808;DHT22;26523;52.504;13.498;2023-12-14T14:47:25;3.10;99.90
40808;DHT22;26523;52.504;13.498;2023-12-14T14:49:59;3.10;99.90
40808;DHT22;26523;52.504;13.498;2023-12-14T14:52:29;3.10;99.90
40808;DHT22;26523;52.504;13.498;2023-12-14T14:55:05;3.10;99.90
40808;DHT22;26523;52.504;13.498;2023-12-14T14:57:31;3.10;99.90
40808;DHT22;26523;52.504;13.498;2023-12-14T14:59:58;3.10;99.90
40808;DHT22;26523;52.504;13.498;2023-12-14T15:02:26;3.10;99.90
40808;DHT22;26523;52.504;13.498;2023-12-14T15:04:51;3.10;99.90
40808;DHT22;26523;52.504;13.498;2023-12-14T15:07:17;3.10;99.90
40808;DHT22;26523;52.504;13.498;2023-12-14T15:09:43;3.20;99.90
40808;DHT22;26523;52.504;13.498;2023-12-14T15:12:09;3.10;99.90
40808;DHT22;26523;52.504;13.498;2023-12-14T15:14:35;3.20;99.90
40808;DHT22;26523;52.504;13.498;2023-12-14T15:17:01;3.10;99.90
40808;DHT22;26523;52.504;13.498;2023-12-14T15:19:32;3.10;99.90
40808;DHT22;26523;52.504;13.498;2023-12-14T15:21:59;3.00;99.90
40808;DHT22;26523;52.504;13.498;2023-12-14T15:24:26;3.10;99.90
40808;DHT22;26523;52.504;13.498;2023-12-14T15:26:53;3.10;99.90
40808;DHT22;26523;52.504;13.498;2023-12-14T15:29:19;3.00;99.90
40808;DHT22;26523;52.504;13.498;2023-12-14T15:31:50;3.00;99.90
40808;DHT22;26523;52.504;13.498;2023-12-14T15:34:18;3.00;99.90